<?xml version="1.0" encoding="UTF-8" standalone="no" ?>
<gpx xmlns="http://www.topografix.com/GPX/1/1" xmlns:xsi="http://www.w3.org/2001/XMLSchema-instance" xsi:schemaLocation="http://www.topografix.com/GPX/1/1 http://www.topografix.com/GPX/1/1/gpx.xsd" version="1.1" creator="VisuGPX - https://www.visugpx.com">
  <metadata>
    <name>mariol chateldon ris</name>
    <desc><![CDATA[boucle d une trentaine de kms ]]></desc>
  </metadata>
  <trk>
    <name><![CDATA[2014-07-05 13:43]]></name>
    <desc><![CDATA[<h1>OruxMaps</h1><br /><hr align="center" width="480" style="height: 2px; width: 517px"/><h2>Nom: 2014-07-05 13:43</h2><br /><p>Temps de départ: 07/05/2014 13:50</p><p>Temps d'arrivée: 07/05/2014 17:51</p><p>Distance: 29,9 km (04:00)</p><p>Temps déplacement: 02:19</p><p>Vitesse moyenne: 7,4 km/h</p><p>Vitesse moyenne: 12,9 km/h</p><p>Vitess Max.: 52,3 km/h</p><p>Altitude minimale: 310 m</p><p>Altitude maximale: 607 m</p><p>Vitesse d'élévation: 535,8 m/h</p><p>Vitesse de descente: -903,1 m/h</p><p>Gain Altitude: 1136 m</p><p>Perte Altitude: -1205 m</p><p>Temps d'élévation: 02:07</p><p>Temps de descente: 01:20</p><hr align="center" width="480" style="height: 2px; width: 517px"/>]]></desc>
    <trkseg>
      <trkpt lat="46.01578" lon="3.50468">
        <ele>383.55</ele>
        <time>2014-07-05T11:50:34Z</time>
      </trkpt>
      <trkpt lat="46.01504" lon="3.50436">
        <ele>371.3</ele>
        <time>2014-07-05T11:51:28Z</time>
      </trkpt>
      <trkpt lat="46.01431" lon="3.50455">
        <ele>364.24</ele>
        <time>2014-07-05T11:51:38Z</time>
      </trkpt>
      <trkpt lat="46.01375" lon="3.50389">
        <ele>349.59</ele>
        <time>2014-07-05T11:52:50Z</time>
      </trkpt>
      <trkpt lat="46.01336" lon="3.50301">
        <ele>349.49</ele>
        <time>2014-07-05T11:53:02Z</time>
      </trkpt>
      <trkpt lat="46.01286" lon="3.50384">
        <ele>347.55</ele>
        <time>2014-07-05T11:53:33Z</time>
      </trkpt>
      <trkpt lat="46.01235" lon="3.50464">
        <ele>347.55</ele>
        <time>2014-07-05T11:54:10Z</time>
      </trkpt>
      <trkpt lat="46.01161" lon="3.5049">
        <ele>348.55</ele>
        <time>2014-07-05T11:54:35Z</time>
      </trkpt>
      <trkpt lat="46.01087" lon="3.50481">
        <ele>351.43</ele>
        <time>2014-07-05T11:54:55Z</time>
      </trkpt>
      <trkpt lat="46.01014" lon="3.50502">
        <ele>353.55</ele>
        <time>2014-07-05T11:55:18Z</time>
      </trkpt>
      <trkpt lat="46.00947" lon="3.50548">
        <ele>355.55</ele>
        <time>2014-07-05T11:55:45Z</time>
      </trkpt>
      <trkpt lat="46.00898" lon="3.50625">
        <ele>357.55</ele>
        <time>2014-07-05T11:56:07Z</time>
      </trkpt>
      <trkpt lat="46.00836" lon="3.50681">
        <ele>361.42</ele>
        <time>2014-07-05T11:56:28Z</time>
      </trkpt>
      <trkpt lat="46.00762" lon="3.50678">
        <ele>367.29</ele>
        <time>2014-07-05T11:56:50Z</time>
      </trkpt>
      <trkpt lat="46.00768" lon="3.50784">
        <ele>379.49</ele>
        <time>2014-07-05T11:57:45Z</time>
      </trkpt>
      <trkpt lat="46.0078" lon="3.50887">
        <ele>386.27</ele>
        <time>2014-07-05T11:58:24Z</time>
      </trkpt>
      <trkpt lat="46.00853" lon="3.50882">
        <ele>392.52</ele>
        <time>2014-07-05T11:58:56Z</time>
      </trkpt>
      <trkpt lat="46.00917" lon="3.50932">
        <ele>399.54</ele>
        <time>2014-07-05T11:59:36Z</time>
      </trkpt>
      <trkpt lat="46.00854" lon="3.50985">
        <ele>406.3</ele>
        <time>2014-07-05T12:00:28Z</time>
      </trkpt>
      <trkpt lat="46.00803" lon="3.51058">
        <ele>412.29</ele>
        <time>2014-07-05T12:01:03Z</time>
      </trkpt>
      <trkpt lat="46.0076" lon="3.51142">
        <ele>418.49</ele>
        <time>2014-07-05T12:01:40Z</time>
      </trkpt>
      <trkpt lat="46.00786" lon="3.51241">
        <ele>424.49</ele>
        <time>2014-07-05T12:02:54Z</time>
      </trkpt>
      <trkpt lat="46.00746" lon="3.51329">
        <ele>445.29</ele>
        <time>2014-07-05T12:03:48Z</time>
      </trkpt>
      <trkpt lat="46.00701" lon="3.5141">
        <ele>455.42</ele>
        <time>2014-07-05T12:04:36Z</time>
      </trkpt>
      <trkpt lat="46.00632" lon="3.51455">
        <ele>463.49</ele>
        <time>2014-07-05T12:05:25Z</time>
      </trkpt>
      <trkpt lat="46.0056" lon="3.5147">
        <ele>470.29</ele>
        <time>2014-07-05T12:05:56Z</time>
      </trkpt>
      <trkpt lat="46.00498" lon="3.5153">
        <ele>478.04</ele>
        <time>2014-07-05T12:06:39Z</time>
      </trkpt>
      <trkpt lat="46.00443" lon="3.51599">
        <ele>484.29</ele>
        <time>2014-07-05T12:07:05Z</time>
      </trkpt>
      <trkpt lat="46.00405" lon="3.51687">
        <ele>492.49</ele>
        <time>2014-07-05T12:07:38Z</time>
      </trkpt>
      <trkpt lat="46.0036" lon="3.51771">
        <ele>494.49</ele>
        <time>2014-07-05T12:08:01Z</time>
      </trkpt>
      <trkpt lat="46.00306" lon="3.51844">
        <ele>504.22</ele>
        <time>2014-07-05T12:08:26Z</time>
      </trkpt>
      <trkpt lat="46.00267" lon="3.51934">
        <ele>513.98</ele>
        <time>2014-07-05T12:08:52Z</time>
      </trkpt>
      <trkpt lat="46.00208" lon="3.52">
        <ele>519.49</ele>
        <time>2014-07-05T12:09:18Z</time>
      </trkpt>
      <trkpt lat="46.00155" lon="3.52071">
        <ele>519.57</ele>
        <time>2014-07-05T12:09:38Z</time>
      </trkpt>
      <trkpt lat="46.00113" lon="3.52157">
        <ele>520.27</ele>
        <time>2014-07-05T12:09:53Z</time>
      </trkpt>
      <trkpt lat="46.00108" lon="3.52262">
        <ele>523.15</ele>
        <time>2014-07-05T12:10:07Z</time>
      </trkpt>
      <trkpt lat="46.00116" lon="3.52365">
        <ele>525.55</ele>
        <time>2014-07-05T12:10:31Z</time>
      </trkpt>
      <trkpt lat="46.00178" lon="3.52427">
        <ele>529.54</ele>
        <time>2014-07-05T12:10:49Z</time>
      </trkpt>
      <trkpt lat="46.00175" lon="3.52539">
        <ele>530.07</ele>
        <time>2014-07-05T12:11:09Z</time>
      </trkpt>
      <trkpt lat="46.00108" lon="3.525">
        <ele>526.62</ele>
        <time>2014-07-05T12:12:01Z</time>
      </trkpt>
      <trkpt lat="46.00034" lon="3.52498">
        <ele>521.56</ele>
        <time>2014-07-05T12:12:34Z</time>
      </trkpt>
      <trkpt lat="45.99958" lon="3.52464">
        <ele>518.55</ele>
        <time>2014-07-05T12:13:08Z</time>
      </trkpt>
      <trkpt lat="45.99891" lon="3.52524">
        <ele>518.55</ele>
        <time>2014-07-05T12:13:59Z</time>
      </trkpt>
      <trkpt lat="45.99852" lon="3.52612">
        <ele>529.02</ele>
        <time>2014-07-05T12:14:47Z</time>
      </trkpt>
      <trkpt lat="45.99796" lon="3.52678">
        <ele>540.41</ele>
        <time>2014-07-05T12:15:28Z</time>
      </trkpt>
      <trkpt lat="45.9975" lon="3.52764">
        <ele>545.99</ele>
        <time>2014-07-05T12:15:56Z</time>
      </trkpt>
      <trkpt lat="45.99678" lon="3.52779">
        <ele>547.55</ele>
        <time>2014-07-05T12:18:12Z</time>
      </trkpt>
      <trkpt lat="45.9961" lon="3.5273">
        <ele>546.56</ele>
        <time>2014-07-05T12:18:27Z</time>
      </trkpt>
      <trkpt lat="45.99545" lon="3.52668">
        <ele>542.82</ele>
        <time>2014-07-05T12:18:36Z</time>
      </trkpt>
      <trkpt lat="45.99487" lon="3.52597">
        <ele>536.12</ele>
        <time>2014-07-05T12:18:45Z</time>
      </trkpt>
      <trkpt lat="45.99438" lon="3.5252">
        <ele>534</ele>
        <time>2014-07-05T12:18:53Z</time>
      </trkpt>
      <trkpt lat="45.99411" lon="3.52423">
        <ele>543.4</ele>
        <time>2014-07-05T12:19:06Z</time>
      </trkpt>
      <trkpt lat="45.99366" lon="3.52335">
        <ele>542.62</ele>
        <time>2014-07-05T12:19:24Z</time>
      </trkpt>
      <trkpt lat="45.99339" lon="3.52238">
        <ele>532.69</ele>
        <time>2014-07-05T12:19:45Z</time>
      </trkpt>
      <trkpt lat="45.99302" lon="3.52146">
        <ele>514.25</ele>
        <time>2014-07-05T12:20:01Z</time>
      </trkpt>
      <trkpt lat="45.9926" lon="3.5205">
        <ele>508.99</ele>
        <time>2014-07-05T12:20:12Z</time>
      </trkpt>
      <trkpt lat="45.99205" lon="3.51972">
        <ele>522.84</ele>
        <time>2014-07-05T12:20:21Z</time>
      </trkpt>
      <trkpt lat="45.99133" lon="3.51936">
        <ele>518.85</ele>
        <time>2014-07-05T12:20:30Z</time>
      </trkpt>
      <trkpt lat="45.99101" lon="3.51829">
        <ele>526.53</ele>
        <time>2014-07-05T12:20:47Z</time>
      </trkpt>
      <trkpt lat="45.99088" lon="3.51715">
        <ele>516.11</ele>
        <time>2014-07-05T12:21:24Z</time>
      </trkpt>
      <trkpt lat="45.99078" lon="3.5161">
        <ele>511.46</ele>
        <time>2014-07-05T12:21:33Z</time>
      </trkpt>
      <trkpt lat="45.99051" lon="3.51505">
        <ele>479.96</ele>
        <time>2014-07-05T12:21:47Z</time>
      </trkpt>
      <trkpt lat="45.99011" lon="3.5141">
        <ele>463.66</ele>
        <time>2014-07-05T12:21:55Z</time>
      </trkpt>
      <trkpt lat="45.98937" lon="3.5138">
        <ele>456.52</ele>
        <time>2014-07-05T12:22:03Z</time>
      </trkpt>
      <trkpt lat="45.9886" lon="3.51365">
        <ele>445.84</ele>
        <time>2014-07-05T12:22:12Z</time>
      </trkpt>
      <trkpt lat="45.98849" lon="3.51472">
        <ele>399.75</ele>
        <time>2014-07-05T12:22:58Z</time>
      </trkpt>
      <trkpt lat="45.9879" lon="3.51539">
        <ele>401.05</ele>
        <time>2014-07-05T12:23:30Z</time>
      </trkpt>
      <trkpt lat="45.98718" lon="3.51543">
        <ele>408.39</ele>
        <time>2014-07-05T12:23:53Z</time>
      </trkpt>
      <trkpt lat="45.98648" lon="3.51573">
        <ele>415.27</ele>
        <time>2014-07-05T12:24:11Z</time>
      </trkpt>
      <trkpt lat="45.98589" lon="3.51638">
        <ele>418.49</ele>
        <time>2014-07-05T12:24:30Z</time>
      </trkpt>
      <trkpt lat="45.98535" lon="3.51708">
        <ele>420.05</ele>
        <time>2014-07-05T12:24:48Z</time>
      </trkpt>
      <trkpt lat="45.98476" lon="3.51768">
        <ele>423.3</ele>
        <time>2014-07-05T12:25:12Z</time>
      </trkpt>
      <trkpt lat="45.98419" lon="3.51839">
        <ele>427.48</ele>
        <time>2014-07-05T12:25:30Z</time>
      </trkpt>
      <trkpt lat="45.98446" lon="3.51944">
        <ele>436.08</ele>
        <time>2014-07-05T12:25:49Z</time>
      </trkpt>
      <trkpt lat="45.98395" lon="3.52024">
        <ele>458.06</ele>
        <time>2014-07-05T12:26:12Z</time>
      </trkpt>
      <trkpt lat="45.98319" lon="3.52035">
        <ele>462.39</ele>
        <time>2014-07-05T12:26:28Z</time>
      </trkpt>
      <trkpt lat="45.98243" lon="3.5208">
        <ele>470.42</ele>
        <time>2014-07-05T12:26:41Z</time>
      </trkpt>
      <trkpt lat="45.98174" lon="3.52116">
        <ele>476.05</ele>
        <time>2014-07-05T12:26:53Z</time>
      </trkpt>
      <trkpt lat="45.98098" lon="3.5211">
        <ele>469.56</ele>
        <time>2014-07-05T12:27:08Z</time>
      </trkpt>
      <trkpt lat="45.98024" lon="3.52144">
        <ele>466.62</ele>
        <time>2014-07-05T12:27:20Z</time>
      </trkpt>
      <trkpt lat="45.97963" lon="3.52202">
        <ele>465.62</ele>
        <time>2014-07-05T12:27:30Z</time>
      </trkpt>
      <trkpt lat="45.97908" lon="3.52277">
        <ele>467.51</ele>
        <time>2014-07-05T12:27:40Z</time>
      </trkpt>
      <trkpt lat="45.97849" lon="3.52352">
        <ele>459.11</ele>
        <time>2014-07-05T12:27:49Z</time>
      </trkpt>
      <trkpt lat="45.97863" lon="3.52459">
        <ele>448.47</ele>
        <time>2014-07-05T12:27:58Z</time>
      </trkpt>
      <trkpt lat="45.97898" lon="3.52565">
        <ele>444.83</ele>
        <time>2014-07-05T12:28:06Z</time>
      </trkpt>
      <trkpt lat="45.97939" lon="3.52653">
        <ele>437.55</ele>
        <time>2014-07-05T12:28:14Z</time>
      </trkpt>
      <trkpt lat="45.98012" lon="3.52646">
        <ele>432.93</ele>
        <time>2014-07-05T12:28:20Z</time>
      </trkpt>
      <trkpt lat="45.98076" lon="3.5259">
        <ele>433.49</ele>
        <time>2014-07-05T12:28:47Z</time>
      </trkpt>
      <trkpt lat="45.98148" lon="3.52584">
        <ele>439.52</ele>
        <time>2014-07-05T12:29:19Z</time>
      </trkpt>
      <trkpt lat="45.98209" lon="3.52646">
        <ele>442.29</ele>
        <time>2014-07-05T12:29:33Z</time>
      </trkpt>
      <trkpt lat="45.98273" lon="3.52706">
        <ele>446.49</ele>
        <time>2014-07-05T12:29:56Z</time>
      </trkpt>
      <trkpt lat="45.98317" lon="3.52801">
        <ele>447.43</ele>
        <time>2014-07-05T12:30:10Z</time>
      </trkpt>
      <trkpt lat="45.98342" lon="3.52908">
        <ele>451.52</ele>
        <time>2014-07-05T12:30:36Z</time>
      </trkpt>
      <trkpt lat="45.98378" lon="3.53004">
        <ele>458.55</ele>
        <time>2014-07-05T12:31:16Z</time>
      </trkpt>
      <trkpt lat="45.98451" lon="3.53004">
        <ele>459.55</ele>
        <time>2014-07-05T12:32:11Z</time>
      </trkpt>
      <trkpt lat="45.98523" lon="3.53009">
        <ele>462.55</ele>
        <time>2014-07-05T12:32:40Z</time>
      </trkpt>
      <trkpt lat="45.98495" lon="3.53107">
        <ele>468.55</ele>
        <time>2014-07-05T12:33:53Z</time>
      </trkpt>
      <trkpt lat="45.98428" lon="3.53148">
        <ele>469.55</ele>
        <time>2014-07-05T12:34:27Z</time>
      </trkpt>
      <trkpt lat="45.98388" lon="3.53238">
        <ele>469.55</ele>
        <time>2014-07-05T12:35:13Z</time>
      </trkpt>
      <trkpt lat="45.9846" lon="3.53223">
        <ele>470.55</ele>
        <time>2014-07-05T12:37:23Z</time>
      </trkpt>
      <trkpt lat="45.98526" lon="3.53271">
        <ele>470.55</ele>
        <time>2014-07-05T12:38:25Z</time>
      </trkpt>
      <trkpt lat="45.98552" lon="3.53369">
        <ele>466.72</ele>
        <time>2014-07-05T12:39:08Z</time>
      </trkpt>
      <trkpt lat="45.98504" lon="3.53451">
        <ele>487.27</ele>
        <time>2014-07-05T12:40:12Z</time>
      </trkpt>
      <trkpt lat="45.98462" lon="3.53537">
        <ele>497.54</ele>
        <time>2014-07-05T12:41:02Z</time>
      </trkpt>
      <trkpt lat="45.98439" lon="3.53635">
        <ele>496.62</ele>
        <time>2014-07-05T12:41:35Z</time>
      </trkpt>
      <trkpt lat="45.98396" lon="3.53719">
        <ele>501.99</ele>
        <time>2014-07-05T12:42:11Z</time>
      </trkpt>
      <trkpt lat="45.98328" lon="3.53755">
        <ele>513.48</ele>
        <time>2014-07-05T12:42:45Z</time>
      </trkpt>
      <trkpt lat="45.98258" lon="3.53786">
        <ele>515.05</ele>
        <time>2014-07-05T12:46:57Z</time>
      </trkpt>
      <trkpt lat="45.98209" lon="3.53865">
        <ele>512.55</ele>
        <time>2014-07-05T12:47:26Z</time>
      </trkpt>
      <trkpt lat="45.98173" lon="3.53957">
        <ele>511.55</ele>
        <time>2014-07-05T12:47:43Z</time>
      </trkpt>
      <trkpt lat="45.98143" lon="3.54056">
        <ele>521.19</ele>
        <time>2014-07-05T12:47:59Z</time>
      </trkpt>
      <trkpt lat="45.98101" lon="3.54142">
        <ele>526.27</ele>
        <time>2014-07-05T12:48:16Z</time>
      </trkpt>
      <trkpt lat="45.98035" lon="3.54185">
        <ele>526.55</ele>
        <time>2014-07-05T12:48:38Z</time>
      </trkpt>
      <trkpt lat="45.97968" lon="3.5423">
        <ele>526.55</ele>
        <time>2014-07-05T12:49:06Z</time>
      </trkpt>
      <trkpt lat="45.97914" lon="3.54298">
        <ele>527.43</ele>
        <time>2014-07-05T12:49:39Z</time>
      </trkpt>
      <trkpt lat="45.97859" lon="3.54369">
        <ele>533.54</ele>
        <time>2014-07-05T12:50:08Z</time>
      </trkpt>
      <trkpt lat="45.97844" lon="3.54472">
        <ele>536.55</ele>
        <time>2014-07-05T12:50:46Z</time>
      </trkpt>
      <trkpt lat="45.97849" lon="3.54579">
        <ele>537.55</ele>
        <time>2014-07-05T12:51:07Z</time>
      </trkpt>
      <trkpt lat="45.97811" lon="3.54667">
        <ele>539.55</ele>
        <time>2014-07-05T12:51:34Z</time>
      </trkpt>
      <trkpt lat="45.97768" lon="3.54751">
        <ele>545.13</ele>
        <time>2014-07-05T12:51:52Z</time>
      </trkpt>
      <trkpt lat="45.977" lon="3.54805">
        <ele>566.91</ele>
        <time>2014-07-05T12:52:08Z</time>
      </trkpt>
      <trkpt lat="45.97716" lon="3.54908">
        <ele>567.82</ele>
        <time>2014-07-05T12:52:20Z</time>
      </trkpt>
      <trkpt lat="45.97754" lon="3.55">
        <ele>565.62</ele>
        <time>2014-07-05T12:52:29Z</time>
      </trkpt>
      <trkpt lat="45.97768" lon="3.55109">
        <ele>565.55</ele>
        <time>2014-07-05T12:52:41Z</time>
      </trkpt>
      <trkpt lat="45.97713" lon="3.55185">
        <ele>569.97</ele>
        <time>2014-07-05T12:52:54Z</time>
      </trkpt>
      <trkpt lat="45.97643" lon="3.55223">
        <ele>573.05</ele>
        <time>2014-07-05T12:53:08Z</time>
      </trkpt>
      <trkpt lat="45.97573" lon="3.55249">
        <ele>573.68</ele>
        <time>2014-07-05T12:53:36Z</time>
      </trkpt>
      <trkpt lat="45.97512" lon="3.55307">
        <ele>570.8</ele>
        <time>2014-07-05T12:54:04Z</time>
      </trkpt>
      <trkpt lat="45.9747" lon="3.55395">
        <ele>572.29</ele>
        <time>2014-07-05T12:54:29Z</time>
      </trkpt>
      <trkpt lat="45.97415" lon="3.55468">
        <ele>579.97</ele>
        <time>2014-07-05T12:54:46Z</time>
      </trkpt>
      <trkpt lat="45.97356" lon="3.55528">
        <ele>582.55</ele>
        <time>2014-07-05T12:55:05Z</time>
      </trkpt>
      <trkpt lat="45.97345" lon="3.55631">
        <ele>578.55</ele>
        <time>2014-07-05T12:57:24Z</time>
      </trkpt>
      <trkpt lat="45.97365" lon="3.55732">
        <ele>577.55</ele>
        <time>2014-07-05T12:57:49Z</time>
      </trkpt>
      <trkpt lat="45.9739" lon="3.55835">
        <ele>579.93</ele>
        <time>2014-07-05T12:58:09Z</time>
      </trkpt>
      <trkpt lat="45.97437" lon="3.55918">
        <ele>582.49</ele>
        <time>2014-07-05T12:58:32Z</time>
      </trkpt>
      <trkpt lat="45.97508" lon="3.55893">
        <ele>583.43</ele>
        <time>2014-07-05T12:58:49Z</time>
      </trkpt>
      <trkpt lat="45.97582" lon="3.55869">
        <ele>582.56</ele>
        <time>2014-07-05T12:59:02Z</time>
      </trkpt>
      <trkpt lat="45.97655" lon="3.5585">
        <ele>584.04</ele>
        <time>2014-07-05T12:59:11Z</time>
      </trkpt>
      <trkpt lat="45.97723" lon="3.55891">
        <ele>583.58</ele>
        <time>2014-07-05T12:59:21Z</time>
      </trkpt>
      <trkpt lat="45.97792" lon="3.55927">
        <ele>584.55</ele>
        <time>2014-07-05T12:59:32Z</time>
      </trkpt>
      <trkpt lat="45.97864" lon="3.55953">
        <ele>584.55</ele>
        <time>2014-07-05T12:59:39Z</time>
      </trkpt>
      <trkpt lat="45.97941" lon="3.55972">
        <ele>582.93</ele>
        <time>2014-07-05T12:59:45Z</time>
      </trkpt>
      <trkpt lat="45.98017" lon="3.55994">
        <ele>580.7</ele>
        <time>2014-07-05T12:59:51Z</time>
      </trkpt>
      <trkpt lat="45.98083" lon="3.56039">
        <ele>572.12</ele>
        <time>2014-07-05T13:00:04Z</time>
      </trkpt>
      <trkpt lat="45.98155" lon="3.56043">
        <ele>553.31</ele>
        <time>2014-07-05T13:00:16Z</time>
      </trkpt>
      <trkpt lat="45.9823" lon="3.56028">
        <ele>550.59</ele>
        <time>2014-07-05T13:00:25Z</time>
      </trkpt>
      <trkpt lat="45.98299" lon="3.55985">
        <ele>549.56</ele>
        <time>2014-07-05T13:00:34Z</time>
      </trkpt>
      <trkpt lat="45.98357" lon="3.55921">
        <ele>548.18</ele>
        <time>2014-07-05T13:00:42Z</time>
      </trkpt>
      <trkpt lat="45.98433" lon="3.55906">
        <ele>533.31</ele>
        <time>2014-07-05T13:00:53Z</time>
      </trkpt>
      <trkpt lat="45.98508" lon="3.55873">
        <ele>523.05</ele>
        <time>2014-07-05T13:01:04Z</time>
      </trkpt>
      <trkpt lat="45.98588" lon="3.55863">
        <ele>515.49</ele>
        <time>2014-07-05T13:01:12Z</time>
      </trkpt>
      <trkpt lat="45.98663" lon="3.55863">
        <ele>505.6</ele>
        <time>2014-07-05T13:01:21Z</time>
      </trkpt>
      <trkpt lat="45.98728" lon="3.55805">
        <ele>490.59</ele>
        <time>2014-07-05T13:01:35Z</time>
      </trkpt>
      <trkpt lat="45.98796" lon="3.5577">
        <ele>482.1</ele>
        <time>2014-07-05T13:01:56Z</time>
      </trkpt>
      <trkpt lat="45.9873" lon="3.55706">
        <ele>475.55</ele>
        <time>2014-07-05T13:04:37Z</time>
      </trkpt>
      <trkpt lat="45.98659" lon="3.55685">
        <ele>473.68</ele>
        <time>2014-07-05T13:06:08Z</time>
      </trkpt>
      <trkpt lat="45.98692" lon="3.55592">
        <ele>476.55</ele>
        <time>2014-07-05T13:07:13Z</time>
      </trkpt>
      <trkpt lat="45.98762" lon="3.55564">
        <ele>485.42</ele>
        <time>2014-07-05T13:08:13Z</time>
      </trkpt>
      <trkpt lat="45.98834" lon="3.55556">
        <ele>496.02</ele>
        <time>2014-07-05T13:08:56Z</time>
      </trkpt>
      <trkpt lat="45.98827" lon="3.55451">
        <ele>514.02</ele>
        <time>2014-07-05T13:10:04Z</time>
      </trkpt>
      <trkpt lat="45.98823" lon="3.55345">
        <ele>520.55</ele>
        <time>2014-07-05T13:10:35Z</time>
      </trkpt>
      <trkpt lat="45.9888" lon="3.55281">
        <ele>520.55</ele>
        <time>2014-07-05T13:10:58Z</time>
      </trkpt>
      <trkpt lat="45.98927" lon="3.55202">
        <ele>521.55</ele>
        <time>2014-07-05T13:15:26Z</time>
      </trkpt>
      <trkpt lat="45.98979" lon="3.55127">
        <ele>522.55</ele>
        <time>2014-07-05T13:15:47Z</time>
      </trkpt>
      <trkpt lat="45.99034" lon="3.55041">
        <ele>521.55</ele>
        <time>2014-07-05T13:16:22Z</time>
      </trkpt>
      <trkpt lat="45.99012" lon="3.54938">
        <ele>525.24</ele>
        <time>2014-07-05T13:16:46Z</time>
      </trkpt>
      <trkpt lat="45.99007" lon="3.54831">
        <ele>533.44</ele>
        <time>2014-07-05T13:16:57Z</time>
      </trkpt>
      <trkpt lat="45.99012" lon="3.54721">
        <ele>532.57</ele>
        <time>2014-07-05T13:17:09Z</time>
      </trkpt>
      <trkpt lat="45.99077" lon="3.54661">
        <ele>520.29</ele>
        <time>2014-07-05T13:17:18Z</time>
      </trkpt>
      <trkpt lat="45.99115" lon="3.54573">
        <ele>514.56</ele>
        <time>2014-07-05T13:17:35Z</time>
      </trkpt>
      <trkpt lat="45.99186" lon="3.54537">
        <ele>509.88</ele>
        <time>2014-07-05T13:17:49Z</time>
      </trkpt>
      <trkpt lat="45.99154" lon="3.5444">
        <ele>502.59</ele>
        <time>2014-07-05T13:18:10Z</time>
      </trkpt>
      <trkpt lat="45.99105" lon="3.54361">
        <ele>486.31</ele>
        <time>2014-07-05T13:18:29Z</time>
      </trkpt>
      <trkpt lat="45.99051" lon="3.54288">
        <ele>478.1</ele>
        <time>2014-07-05T13:18:45Z</time>
      </trkpt>
      <trkpt lat="45.99026" lon="3.54189">
        <ele>480.05</ele>
        <time>2014-07-05T13:19:08Z</time>
      </trkpt>
      <trkpt lat="45.99024" lon="3.54084">
        <ele>481.55</ele>
        <time>2014-07-05T13:19:27Z</time>
      </trkpt>
      <trkpt lat="45.98992" lon="3.53989">
        <ele>460.81</ele>
        <time>2014-07-05T13:22:17Z</time>
      </trkpt>
      <trkpt lat="45.99" lon="3.54092">
        <ele>411.29</ele>
        <time>2014-07-05T13:23:45Z</time>
      </trkpt>
      <trkpt lat="45.99042" lon="3.54182">
        <ele>396.59</ele>
        <time>2014-07-05T13:24:16Z</time>
      </trkpt>
      <trkpt lat="45.99102" lon="3.54247">
        <ele>395.55</ele>
        <time>2014-07-05T13:24:35Z</time>
      </trkpt>
      <trkpt lat="45.99162" lon="3.54305">
        <ele>395.55</ele>
        <time>2014-07-05T13:25:04Z</time>
      </trkpt>
      <trkpt lat="45.99218" lon="3.54371">
        <ele>392.57</ele>
        <time>2014-07-05T13:25:30Z</time>
      </trkpt>
      <trkpt lat="45.9927" lon="3.54444">
        <ele>392.55</ele>
        <time>2014-07-05T13:26:00Z</time>
      </trkpt>
      <trkpt lat="45.99318" lon="3.54526">
        <ele>397.43</ele>
        <time>2014-07-05T13:26:28Z</time>
      </trkpt>
      <trkpt lat="45.99355" lon="3.54616">
        <ele>413.84</ele>
        <time>2014-07-05T13:26:59Z</time>
      </trkpt>
      <trkpt lat="45.99396" lon="3.54704">
        <ele>434.69</ele>
        <time>2014-07-05T13:27:24Z</time>
      </trkpt>
      <trkpt lat="45.99453" lon="3.5477">
        <ele>446.98</ele>
        <time>2014-07-05T13:27:49Z</time>
      </trkpt>
      <trkpt lat="45.99494" lon="3.54856">
        <ele>458.23</ele>
        <time>2014-07-05T13:28:24Z</time>
      </trkpt>
      <trkpt lat="45.99564" lon="3.54888">
        <ele>476.39</ele>
        <time>2014-07-05T13:29:08Z</time>
      </trkpt>
      <trkpt lat="45.99631" lon="3.5485">
        <ele>488.49</ele>
        <time>2014-07-05T13:29:44Z</time>
      </trkpt>
      <trkpt lat="45.99703" lon="3.54858">
        <ele>492.55</ele>
        <time>2014-07-05T13:30:38Z</time>
      </trkpt>
      <trkpt lat="45.99772" lon="3.54891">
        <ele>493.55</ele>
        <time>2014-07-05T13:33:10Z</time>
      </trkpt>
      <trkpt lat="45.99844" lon="3.54906">
        <ele>456.55</ele>
        <time>2014-07-05T13:38:24Z</time>
      </trkpt>
      <trkpt lat="45.99877" lon="3.54813">
        <ele>469.3</ele>
        <time>2014-07-05T13:45:29Z</time>
      </trkpt>
      <trkpt lat="45.99939" lon="3.5476">
        <ele>494.48</ele>
        <time>2014-07-05T13:47:15Z</time>
      </trkpt>
      <trkpt lat="45.9999" lon="3.54685">
        <ele>502.55</ele>
        <time>2014-07-05T13:52:17Z</time>
      </trkpt>
      <trkpt lat="46.00056" lon="3.54637">
        <ele>509.54</ele>
        <time>2014-07-05T13:53:22Z</time>
      </trkpt>
      <trkpt lat="46.00119" lon="3.54588">
        <ele>514.54</ele>
        <time>2014-07-05T13:53:53Z</time>
      </trkpt>
      <trkpt lat="46.0019" lon="3.54567">
        <ele>519.55</ele>
        <time>2014-07-05T13:54:39Z</time>
      </trkpt>
      <trkpt lat="46.00253" lon="3.54629">
        <ele>510.06</ele>
        <time>2014-07-05T13:55:32Z</time>
      </trkpt>
      <trkpt lat="46.00314" lon="3.54693">
        <ele>508.55</ele>
        <time>2014-07-05T13:55:54Z</time>
      </trkpt>
      <trkpt lat="46.00371" lon="3.54758">
        <ele>515.55</ele>
        <time>2014-07-05T13:57:13Z</time>
      </trkpt>
      <trkpt lat="46.00323" lon="3.54835">
        <ele>524.12</ele>
        <time>2014-07-05T14:03:42Z</time>
      </trkpt>
      <trkpt lat="46.00387" lon="3.54886">
        <ele>520.55</ele>
        <time>2014-07-05T14:05:33Z</time>
      </trkpt>
      <trkpt lat="46.00452" lon="3.54841">
        <ele>515.55</ele>
        <time>2014-07-05T14:10:21Z</time>
      </trkpt>
      <trkpt lat="46.00516" lon="3.54792">
        <ele>516.55</ele>
        <time>2014-07-05T14:11:00Z</time>
      </trkpt>
      <trkpt lat="46.00584" lon="3.54749">
        <ele>520.55</ele>
        <time>2014-07-05T14:11:46Z</time>
      </trkpt>
      <trkpt lat="46.00652" lon="3.54712">
        <ele>522.05</ele>
        <time>2014-07-05T14:12:15Z</time>
      </trkpt>
      <trkpt lat="46.00685" lon="3.54805">
        <ele>510.59</ele>
        <time>2014-07-05T14:14:43Z</time>
      </trkpt>
      <trkpt lat="46.00701" lon="3.54908">
        <ele>502.62</ele>
        <time>2014-07-05T14:15:25Z</time>
      </trkpt>
      <trkpt lat="46.00747" lon="3.54991">
        <ele>497.57</ele>
        <time>2014-07-05T14:16:01Z</time>
      </trkpt>
      <trkpt lat="46.00777" lon="3.55086">
        <ele>494.05</ele>
        <time>2014-07-05T14:16:30Z</time>
      </trkpt>
      <trkpt lat="46.0082" lon="3.55172">
        <ele>492.55</ele>
        <time>2014-07-05T14:17:01Z</time>
      </trkpt>
      <trkpt lat="46.00864" lon="3.55258">
        <ele>491.55</ele>
        <time>2014-07-05T14:17:29Z</time>
      </trkpt>
      <trkpt lat="46.00905" lon="3.55343">
        <ele>491.55</ele>
        <time>2014-07-05T14:18:00Z</time>
      </trkpt>
      <trkpt lat="46.00953" lon="3.55425">
        <ele>490.55</ele>
        <time>2014-07-05T14:18:32Z</time>
      </trkpt>
      <trkpt lat="46.00993" lon="3.55515">
        <ele>490.55</ele>
        <time>2014-07-05T14:18:59Z</time>
      </trkpt>
      <trkpt lat="46.01063" lon="3.55483">
        <ele>489.55</ele>
        <time>2014-07-05T14:20:08Z</time>
      </trkpt>
      <trkpt lat="46.01132" lon="3.55448">
        <ele>491.55</ele>
        <time>2014-07-05T14:20:49Z</time>
      </trkpt>
      <trkpt lat="46.01202" lon="3.55474">
        <ele>492.49</ele>
        <time>2014-07-05T14:21:15Z</time>
      </trkpt>
      <trkpt lat="46.01256" lon="3.55545">
        <ele>491.55</ele>
        <time>2014-07-05T14:21:46Z</time>
      </trkpt>
      <trkpt lat="46.01251" lon="3.55652">
        <ele>491.55</ele>
        <time>2014-07-05T14:22:16Z</time>
      </trkpt>
      <trkpt lat="46.01318" lon="3.55609">
        <ele>565.54</ele>
        <time>2014-07-05T14:24:51Z</time>
      </trkpt>
      <trkpt lat="46.01534" lon="3.55264">
        <ele>555.55</ele>
        <time>2014-07-05T14:26:23Z</time>
      </trkpt>
      <trkpt lat="46.0158" lon="3.5518">
        <ele>575.38</ele>
        <time>2014-07-05T14:30:00Z</time>
      </trkpt>
      <trkpt lat="46.01507" lon="3.55191">
        <ele>578.65</ele>
        <time>2014-07-05T14:32:21Z</time>
      </trkpt>
      <trkpt lat="46.01464" lon="3.55107">
        <ele>582.05</ele>
        <time>2014-07-05T14:32:38Z</time>
      </trkpt>
      <trkpt lat="46.01453" lon="3.55">
        <ele>581.55</ele>
        <time>2014-07-05T14:32:51Z</time>
      </trkpt>
      <trkpt lat="46.01475" lon="3.54897">
        <ele>580.18</ele>
        <time>2014-07-05T14:33:07Z</time>
      </trkpt>
      <trkpt lat="46.01541" lon="3.54843">
        <ele>570.73</ele>
        <time>2014-07-05T14:33:22Z</time>
      </trkpt>
      <trkpt lat="46.01479" lon="3.54901">
        <ele>575.41</ele>
        <time>2014-07-05T14:35:38Z</time>
      </trkpt>
      <trkpt lat="46.01449" lon="3.54996">
        <ele>577.52</ele>
        <time>2014-07-05T14:35:55Z</time>
      </trkpt>
      <trkpt lat="46.01464" lon="3.55101">
        <ele>580.29</ele>
        <time>2014-07-05T14:36:10Z</time>
      </trkpt>
      <trkpt lat="46.01507" lon="3.55185">
        <ele>579.56</ele>
        <time>2014-07-05T14:36:24Z</time>
      </trkpt>
      <trkpt lat="46.01543" lon="3.55275">
        <ele>578.62</ele>
        <time>2014-07-05T14:39:43Z</time>
      </trkpt>
      <trkpt lat="46.01561" lon="3.55376">
        <ele>578.55</ele>
        <time>2014-07-05T14:43:12Z</time>
      </trkpt>
      <trkpt lat="46.0157" lon="3.55481">
        <ele>581.52</ele>
        <time>2014-07-05T14:43:42Z</time>
      </trkpt>
      <trkpt lat="46.01571" lon="3.55586">
        <ele>583.52</ele>
        <time>2014-07-05T14:44:12Z</time>
      </trkpt>
      <trkpt lat="46.01588" lon="3.55689">
        <ele>590.49</ele>
        <time>2014-07-05T14:44:48Z</time>
      </trkpt>
      <trkpt lat="46.01612" lon="3.55788">
        <ele>598.02</ele>
        <time>2014-07-05T14:45:18Z</time>
      </trkpt>
      <trkpt lat="46.01626" lon="3.55891">
        <ele>600.55</ele>
        <time>2014-07-05T14:45:40Z</time>
      </trkpt>
      <trkpt lat="46.01629" lon="3.56004">
        <ele>607.76</ele>
        <time>2014-07-05T14:45:58Z</time>
      </trkpt>
      <trkpt lat="46.01602" lon="3.56112">
        <ele>603.52</ele>
        <time>2014-07-05T14:46:38Z</time>
      </trkpt>
      <trkpt lat="46.0158" lon="3.5621">
        <ele>602.54</ele>
        <time>2014-07-05T14:46:48Z</time>
      </trkpt>
      <trkpt lat="46.01569" lon="3.56318">
        <ele>602.55</ele>
        <time>2014-07-05T14:46:58Z</time>
      </trkpt>
      <trkpt lat="46.01554" lon="3.56427">
        <ele>604.48</ele>
        <time>2014-07-05T14:47:08Z</time>
      </trkpt>
      <trkpt lat="46.01558" lon="3.56532">
        <ele>605.55</ele>
        <time>2014-07-05T14:47:22Z</time>
      </trkpt>
      <trkpt lat="46.01567" lon="3.56639">
        <ele>601.4</ele>
        <time>2014-07-05T14:47:39Z</time>
      </trkpt>
      <trkpt lat="46.01572" lon="3.56751">
        <ele>578.32</ele>
        <time>2014-07-05T14:47:50Z</time>
      </trkpt>
      <trkpt lat="46.01631" lon="3.56813">
        <ele>548.04</ele>
        <time>2014-07-05T14:48:01Z</time>
      </trkpt>
      <trkpt lat="46.01702" lon="3.56856">
        <ele>526.05</ele>
        <time>2014-07-05T14:48:23Z</time>
      </trkpt>
      <trkpt lat="46.01723" lon="3.56957">
        <ele>518.85</ele>
        <time>2014-07-05T14:48:41Z</time>
      </trkpt>
      <trkpt lat="46.0176" lon="3.57051">
        <ele>498.63</ele>
        <time>2014-07-05T14:52:12Z</time>
      </trkpt>
      <trkpt lat="46.01808" lon="3.57135">
        <ele>486.55</ele>
        <time>2014-07-05T14:52:42Z</time>
      </trkpt>
      <trkpt lat="46.01823" lon="3.5724">
        <ele>485.56</ele>
        <time>2014-07-05T14:52:58Z</time>
      </trkpt>
      <trkpt lat="46.0183" lon="3.5735">
        <ele>482.32</ele>
        <time>2014-07-05T14:53:16Z</time>
      </trkpt>
      <trkpt lat="46.0186" lon="3.57446">
        <ele>480.57</ele>
        <time>2014-07-05T14:53:27Z</time>
      </trkpt>
      <trkpt lat="46.01926" lon="3.57491">
        <ele>485.93</ele>
        <time>2014-07-05T14:53:48Z</time>
      </trkpt>
      <trkpt lat="46.01891" lon="3.57584">
        <ele>486.57</ele>
        <time>2014-07-05T14:54:08Z</time>
      </trkpt>
      <trkpt lat="46.01831" lon="3.5765">
        <ele>483.55</ele>
        <time>2014-07-05T14:54:38Z</time>
      </trkpt>
      <trkpt lat="46.01781" lon="3.57734">
        <ele>476.58</ele>
        <time>2014-07-05T14:54:53Z</time>
      </trkpt>
      <trkpt lat="46.01767" lon="3.57837">
        <ele>480.05</ele>
        <time>2014-07-05T14:55:43Z</time>
      </trkpt>
      <trkpt lat="46.01842" lon="3.57873">
        <ele>490.99</ele>
        <time>2014-07-05T14:56:46Z</time>
      </trkpt>
      <trkpt lat="46.01857" lon="3.57978">
        <ele>498.55</ele>
        <time>2014-07-05T14:57:25Z</time>
      </trkpt>
      <trkpt lat="46.01824" lon="3.58071">
        <ele>499.49</ele>
        <time>2014-07-05T14:59:18Z</time>
      </trkpt>
      <trkpt lat="46.01754" lon="3.58034">
        <ele>501.55</ele>
        <time>2014-07-05T14:59:54Z</time>
      </trkpt>
      <trkpt lat="46.01684" lon="3.58015">
        <ele>505.54</ele>
        <time>2014-07-05T15:00:27Z</time>
      </trkpt>
      <trkpt lat="46.01611" lon="3.58017">
        <ele>516.04</ele>
        <time>2014-07-05T15:01:25Z</time>
      </trkpt>
      <trkpt lat="46.01538" lon="3.58013">
        <ele>524.02</ele>
        <time>2014-07-05T15:02:10Z</time>
      </trkpt>
      <trkpt lat="46.01464" lon="3.57987">
        <ele>530.04</ele>
        <time>2014-07-05T15:02:35Z</time>
      </trkpt>
      <trkpt lat="46.01401" lon="3.57929">
        <ele>535.55</ele>
        <time>2014-07-05T15:02:59Z</time>
      </trkpt>
      <trkpt lat="46.01346" lon="3.5786">
        <ele>538.55</ele>
        <time>2014-07-05T15:03:28Z</time>
      </trkpt>
      <trkpt lat="46.01275" lon="3.57835">
        <ele>543.55</ele>
        <time>2014-07-05T15:04:17Z</time>
      </trkpt>
      <trkpt lat="46.01201" lon="3.57837">
        <ele>550.99</ele>
        <time>2014-07-05T15:04:54Z</time>
      </trkpt>
      <trkpt lat="46.01164" lon="3.57747">
        <ele>561.55</ele>
        <time>2014-07-05T15:05:48Z</time>
      </trkpt>
      <trkpt lat="46.0119" lon="3.57646">
        <ele>565.49</ele>
        <time>2014-07-05T15:06:22Z</time>
      </trkpt>
      <trkpt lat="46.01173" lon="3.57543">
        <ele>573.29</ele>
        <time>2014-07-05T15:06:52Z</time>
      </trkpt>
      <trkpt lat="46.01209" lon="3.57448">
        <ele>586.48</ele>
        <time>2014-07-05T15:07:23Z</time>
      </trkpt>
      <trkpt lat="46.01218" lon="3.57345">
        <ele>593.4</ele>
        <time>2014-07-05T15:07:35Z</time>
      </trkpt>
      <trkpt lat="46.01217" lon="3.5724">
        <ele>592.05</ele>
        <time>2014-07-05T15:07:53Z</time>
      </trkpt>
      <trkpt lat="46.01258" lon="3.57152">
        <ele>584.58</ele>
        <time>2014-07-05T15:08:08Z</time>
      </trkpt>
      <trkpt lat="46.01264" lon="3.57047">
        <ele>572.94</ele>
        <time>2014-07-05T15:08:19Z</time>
      </trkpt>
      <trkpt lat="46.01221" lon="3.56957">
        <ele>569.93</ele>
        <time>2014-07-05T15:08:32Z</time>
      </trkpt>
      <trkpt lat="46.0116" lon="3.56893">
        <ele>564.21</ele>
        <time>2014-07-05T15:08:41Z</time>
      </trkpt>
      <trkpt lat="46.01172" lon="3.56785">
        <ele>577.55</ele>
        <time>2014-07-05T15:08:53Z</time>
      </trkpt>
      <trkpt lat="46.01163" lon="3.56672">
        <ele>570.06</ele>
        <time>2014-07-05T15:09:02Z</time>
      </trkpt>
      <trkpt lat="46.01144" lon="3.56564">
        <ele>561.05</ele>
        <time>2014-07-05T15:10:04Z</time>
      </trkpt>
      <trkpt lat="46.01114" lon="3.5647">
        <ele>549.62</ele>
        <time>2014-07-05T15:10:40Z</time>
      </trkpt>
      <trkpt lat="46.01065" lon="3.5639">
        <ele>539.06</ele>
        <time>2014-07-05T15:11:13Z</time>
      </trkpt>
      <trkpt lat="46.01033" lon="3.5629">
        <ele>535.55</ele>
        <time>2014-07-05T15:11:43Z</time>
      </trkpt>
      <trkpt lat="46.01013" lon="3.56189">
        <ele>538.49</ele>
        <time>2014-07-05T15:12:12Z</time>
      </trkpt>
      <trkpt lat="46.00959" lon="3.56116">
        <ele>542.55</ele>
        <time>2014-07-05T15:12:50Z</time>
      </trkpt>
      <trkpt lat="46.00954" lon="3.56009">
        <ele>545.55</ele>
        <time>2014-07-05T15:13:21Z</time>
      </trkpt>
      <trkpt lat="46.00985" lon="3.55912">
        <ele>551.02</ele>
        <time>2014-07-05T15:13:58Z</time>
      </trkpt>
      <trkpt lat="46.01027" lon="3.55826">
        <ele>559.05</ele>
        <time>2014-07-05T15:16:57Z</time>
      </trkpt>
      <trkpt lat="46.0109" lon="3.55775">
        <ele>561.55</ele>
        <time>2014-07-05T15:17:25Z</time>
      </trkpt>
      <trkpt lat="46.01151" lon="3.55712">
        <ele>565.49</ele>
        <time>2014-07-05T15:17:44Z</time>
      </trkpt>
      <trkpt lat="46.01228" lon="3.55695">
        <ele>578.22</ele>
        <time>2014-07-05T15:17:53Z</time>
      </trkpt>
      <trkpt lat="46.01302" lon="3.55674">
        <ele>586.21</ele>
        <time>2014-07-05T15:18:02Z</time>
      </trkpt>
      <trkpt lat="46.0135" lon="3.55594">
        <ele>581.57</ele>
        <time>2014-07-05T15:18:14Z</time>
      </trkpt>
      <trkpt lat="46.01397" lon="3.55515">
        <ele>577.57</ele>
        <time>2014-07-05T15:18:30Z</time>
      </trkpt>
      <trkpt lat="46.01399" lon="3.5541">
        <ele>584.49</ele>
        <time>2014-07-05T15:18:48Z</time>
      </trkpt>
      <trkpt lat="46.01456" lon="3.55333">
        <ele>584.82</ele>
        <time>2014-07-05T15:19:03Z</time>
      </trkpt>
      <trkpt lat="46.01523" lon="3.55288">
        <ele>580.88</ele>
        <time>2014-07-05T15:19:12Z</time>
      </trkpt>
      <trkpt lat="46.0151" lon="3.5518">
        <ele>576.59</ele>
        <time>2014-07-05T15:19:24Z</time>
      </trkpt>
      <trkpt lat="46.01466" lon="3.55094">
        <ele>577.49</ele>
        <time>2014-07-05T15:19:35Z</time>
      </trkpt>
      <trkpt lat="46.01449" lon="3.54987">
        <ele>577.55</ele>
        <time>2014-07-05T15:19:46Z</time>
      </trkpt>
      <trkpt lat="46.01482" lon="3.54888">
        <ele>573.52</ele>
        <time>2014-07-05T15:19:56Z</time>
      </trkpt>
      <trkpt lat="46.01553" lon="3.54839">
        <ele>569.63</ele>
        <time>2014-07-05T15:20:05Z</time>
      </trkpt>
      <trkpt lat="46.01577" lon="3.54738">
        <ele>570.3</ele>
        <time>2014-07-05T15:20:16Z</time>
      </trkpt>
      <trkpt lat="46.01545" lon="3.54637">
        <ele>573.41</ele>
        <time>2014-07-05T15:20:26Z</time>
      </trkpt>
      <trkpt lat="46.01531" lon="3.54534">
        <ele>575.55</ele>
        <time>2014-07-05T15:20:47Z</time>
      </trkpt>
      <trkpt lat="46.01561" lon="3.54438">
        <ele>579.3</ele>
        <time>2014-07-05T15:21:14Z</time>
      </trkpt>
      <trkpt lat="46.01586" lon="3.54337">
        <ele>581.55</ele>
        <time>2014-07-05T15:21:38Z</time>
      </trkpt>
      <trkpt lat="46.01609" lon="3.54236">
        <ele>583.54</ele>
        <time>2014-07-05T15:22:03Z</time>
      </trkpt>
      <trkpt lat="46.0164" lon="3.54142">
        <ele>585.55</ele>
        <time>2014-07-05T15:22:33Z</time>
      </trkpt>
      <trkpt lat="46.01662" lon="3.54039">
        <ele>581.55</ele>
        <time>2014-07-05T15:23:00Z</time>
      </trkpt>
      <trkpt lat="46.01668" lon="3.53934">
        <ele>585.41</ele>
        <time>2014-07-05T15:23:16Z</time>
      </trkpt>
      <trkpt lat="46.01644" lon="3.53835">
        <ele>593.49</ele>
        <time>2014-07-05T15:23:30Z</time>
      </trkpt>
      <trkpt lat="46.0161" lon="3.5374">
        <ele>599.11</ele>
        <time>2014-07-05T15:23:43Z</time>
      </trkpt>
      <trkpt lat="46.01615" lon="3.53633">
        <ele>603.58</ele>
        <time>2014-07-05T15:23:56Z</time>
      </trkpt>
      <trkpt lat="46.01628" lon="3.53522">
        <ele>601.62</ele>
        <time>2014-07-05T15:24:09Z</time>
      </trkpt>
      <trkpt lat="46.01618" lon="3.53419">
        <ele>579.58</ele>
        <time>2014-07-05T15:24:21Z</time>
      </trkpt>
      <trkpt lat="46.01637" lon="3.53316">
        <ele>584.13</ele>
        <time>2014-07-05T15:24:30Z</time>
      </trkpt>
      <trkpt lat="46.01641" lon="3.53206">
        <ele>586.8</ele>
        <time>2014-07-05T15:24:44Z</time>
      </trkpt>
      <trkpt lat="46.01624" lon="3.53103">
        <ele>587.55</ele>
        <time>2014-07-05T15:25:05Z</time>
      </trkpt>
      <trkpt lat="46.01629" lon="3.52998">
        <ele>578.72</ele>
        <time>2014-07-05T15:25:18Z</time>
      </trkpt>
      <trkpt lat="46.01673" lon="3.5291">
        <ele>573.9</ele>
        <time>2014-07-05T15:25:25Z</time>
      </trkpt>
      <trkpt lat="46.01704" lon="3.52813">
        <ele>572.56</ele>
        <time>2014-07-05T15:25:33Z</time>
      </trkpt>
      <trkpt lat="46.01748" lon="3.52728">
        <ele>568.57</ele>
        <time>2014-07-05T15:25:53Z</time>
      </trkpt>
      <trkpt lat="46.01787" lon="3.52635">
        <ele>567.8</ele>
        <time>2014-07-05T15:26:13Z</time>
      </trkpt>
      <trkpt lat="46.01784" lon="3.52526">
        <ele>563.18</ele>
        <time>2014-07-05T15:27:34Z</time>
      </trkpt>
      <trkpt lat="46.01834" lon="3.52449">
        <ele>557.32</ele>
        <time>2014-07-05T15:27:45Z</time>
      </trkpt>
      <trkpt lat="46.01869" lon="3.52356">
        <ele>540.3</ele>
        <time>2014-07-05T15:28:02Z</time>
      </trkpt>
      <trkpt lat="46.01823" lon="3.52266">
        <ele>519.61</ele>
        <time>2014-07-05T15:28:47Z</time>
      </trkpt>
      <trkpt lat="46.01828" lon="3.52161">
        <ele>487.55</ele>
        <time>2014-07-05T15:32:11Z</time>
      </trkpt>
      <trkpt lat="46.019" lon="3.52165">
        <ele>483.89</ele>
        <time>2014-07-05T15:34:29Z</time>
      </trkpt>
      <trkpt lat="46.01969" lon="3.52133">
        <ele>451.81</ele>
        <time>2014-07-05T15:37:23Z</time>
      </trkpt>
      <trkpt lat="46.02033" lon="3.52086">
        <ele>441.12</ele>
        <time>2014-07-05T15:39:21Z</time>
      </trkpt>
      <trkpt lat="46.0206" lon="3.5199">
        <ele>446.2</ele>
        <time>2014-07-05T15:45:19Z</time>
      </trkpt>
      <trkpt lat="46.02048" lon="3.51882">
        <ele>431.89</ele>
        <time>2014-07-05T15:45:51Z</time>
      </trkpt>
      <trkpt lat="46.02046" lon="3.51766">
        <ele>411.63</ele>
        <time>2014-07-05T15:46:07Z</time>
      </trkpt>
      <trkpt lat="46.02092" lon="3.51683">
        <ele>414.04</ele>
        <time>2014-07-05T15:46:22Z</time>
      </trkpt>
      <trkpt lat="46.02134" lon="3.51597">
        <ele>430.82</ele>
        <time>2014-07-05T15:46:36Z</time>
      </trkpt>
      <trkpt lat="46.02158" lon="3.51494">
        <ele>428.68</ele>
        <time>2014-07-05T15:46:48Z</time>
      </trkpt>
      <trkpt lat="46.02206" lon="3.51404">
        <ele>417.29</ele>
        <time>2014-07-05T15:46:59Z</time>
      </trkpt>
      <trkpt lat="46.02221" lon="3.51294">
        <ele>408.88</ele>
        <time>2014-07-05T15:47:07Z</time>
      </trkpt>
      <trkpt lat="46.02219" lon="3.51181">
        <ele>401.05</ele>
        <time>2014-07-05T15:47:15Z</time>
      </trkpt>
      <trkpt lat="46.0222" lon="3.51073">
        <ele>370.26</ele>
        <time>2014-07-05T15:47:29Z</time>
      </trkpt>
      <trkpt lat="46.02239" lon="3.5097">
        <ele>357.8</ele>
        <time>2014-07-05T15:47:46Z</time>
      </trkpt>
      <trkpt lat="46.02231" lon="3.50861">
        <ele>350.15</ele>
        <time>2014-07-05T15:48:59Z</time>
      </trkpt>
      <trkpt lat="46.02215" lon="3.50749">
        <ele>339</ele>
        <time>2014-07-05T15:49:10Z</time>
      </trkpt>
      <trkpt lat="46.02209" lon="3.50644">
        <ele>336.56</ele>
        <time>2014-07-05T15:49:20Z</time>
      </trkpt>
      <trkpt lat="46.02157" lon="3.50565">
        <ele>338.49</ele>
        <time>2014-07-05T15:49:40Z</time>
      </trkpt>
      <trkpt lat="46.02091" lon="3.50513">
        <ele>339.55</ele>
        <time>2014-07-05T15:49:55Z</time>
      </trkpt>
      <trkpt lat="46.02045" lon="3.5043">
        <ele>339.55</ele>
        <time>2014-07-05T15:50:06Z</time>
      </trkpt>
      <trkpt lat="46.02085" lon="3.50327">
        <ele>336.72</ele>
        <time>2014-07-05T15:50:14Z</time>
      </trkpt>
      <trkpt lat="46.02118" lon="3.50226">
        <ele>333.34</ele>
        <time>2014-07-05T15:50:24Z</time>
      </trkpt>
      <trkpt lat="46.02115" lon="3.50121">
        <ele>327.6</ele>
        <time>2014-07-05T15:50:35Z</time>
      </trkpt>
      <trkpt lat="46.02107" lon="3.50015">
        <ele>325.87</ele>
        <time>2014-07-05T15:50:45Z</time>
      </trkpt>
      <trkpt lat="46.02084" lon="3.49915">
        <ele>322.57</ele>
        <time>2014-07-05T15:50:56Z</time>
      </trkpt>
      <trkpt lat="46.02068" lon="3.49812">
        <ele>315.73</ele>
        <time>2014-07-05T15:51:10Z</time>
      </trkpt>
      <trkpt lat="46.02096" lon="3.49713">
        <ele>310.81</ele>
        <time>2014-07-05T15:51:26Z</time>
      </trkpt>
    </trkseg>
  </trk>
</gpx>